Time;durP1;ratioP1;P1;durP2;ratioP2;P2;SDS_P1;SDS_P2;PMS_P1;PMS_P2;Temp;Humidity;BMP_temperature;BMP_pressure;BME280_temperature;BME280_humidity;BME280_pressure;Samples;Min_cycle;Max_cycle;Signal;HPM_P1;HPM_P2
2020/12/17 00:00:12;;;;;;;54.70;43.97;;;8.90;99.90;;;;;;5014100;28;20472;-70
2020/12/17 00:02:39;;;;;;;55.13;47.07;;;8.80;99.90;;;;;;5013251;28;20936;-70
2020/12/17 00:05:05;;;;;;;56.87;48.47;;;8.80;99.90;;;;;;5012904;28;20450;-70
2020/12/17 00:07:31;;;;;;;58.63;46.93;;;8.80;99.90;;;;;;5013329;28;21024;-70
2020/12/17 00:09:58;;;;;;;58.60;46.83;;;8.80;99.90;;;;;;5012761;28;20519;-70
2020/12/17 00:12:25;;;;;;;60.97;44.50;;;8.70;99.90;;;;;;5013252;28;20455;-70
2020/12/17 00:14:51;;;;;;;60.93;46.20;;;8.70;99.90;;;;;;5012599;28;20576;-70
2020/12/17 00:17:17;;;;;;;68.50;47.33;;;8.70;99.90;;;;;;5013137;28;20473;-70
2020/12/17 00:19:44;;;;;;;57.80;43.73;;;8.70;99.90;;;;;;5012935;28;20456;-70
2020/12/17 00:22:10;;;;;;;60.00;45.50;;;8.70;99.90;;;;;;5013415;28;20449;-70
2020/12/17 00:24:36;;;;;;;58.50;49.17;;;8.70;99.90;;;;;;5013001;28;20991;-70
2020/12/17 00:27:03;;;;;;;60.30;44.03;;;8.70;99.90;;;;;;5013071;28;20465;-70
2020/12/17 00:29:29;;;;;;;56.43;43.53;;;8.80;99.90;;;;;;5006767;28;20988;-70
2020/12/17 00:31:56;;;;;;;57.23;45.13;;;8.70;99.90;;;;;;5012516;28;20460;-70
2020/12/17 00:34:22;;;;;;;56.90;46.70;;;8.70;99.90;;;;;;5012513;28;20450;-71
2020/12/17 00:36:52;;;;;;;61.47;47.37;;;8.60;99.90;;;;;;5013021;28;20469;-70
2020/12/17 00:39:19;;;;;;;59.27;45.73;;;8.60;99.90;;;;;;5012128;28;20450;-70
2020/12/17 00:41:46;;;;;;;57.83;43.53;;;8.70;99.90;;;;;;5012035;28;20449;-70
2020/12/17 00:44:13;;;;;;;64.57;46.47;;;8.70;99.90;;;;;;5011407;28;20453;-71
2020/12/17 00:46:39;;;;;;;50.93;42.33;;;8.60;99.90;;;;;;5012725;28;20469;-71
2020/12/17 00:49:05;;;;;;;57.50;45.80;;;8.60;99.90;;;;;;5011931;28;20957;-71
2020/12/17 00:51:32;;;;;;;57.37;45.10;;;8.60;99.90;;;;;;5012820;28;20514;-71
2020/12/17 00:53:58;;;;;;;54.67;42.80;;;8.60;99.90;;;;;;5012089;28;20875;-71
2020/12/17 00:56:24;;;;;;;52.97;42.17;;;8.60;99.90;;;;;;5012425;28;20592;-71
2020/12/17 00:58:50;;;;;;;57.37;45.10;;;8.60;99.90;;;;;;5012412;28;20454;-70
2020/12/17 01:01:17;;;;;;;57.93;44.47;;;8.50;99.90;;;;;;5013132;28;20449;-70
2020/12/17 01:03:44;;;;;;;54.00;42.47;;;8.40;99.90;;;;;;5013913;28;20461;-70
2020/12/17 01:06:10;;;;;;;54.63;43.50;;;8.40;99.90;;;;;;5013799;28;20473;-71
2020/12/17 01:08:36;;;;;;;53.80;41.37;;;8.30;99.90;;;;;;5014643;28;20521;-71
2020/12/17 01:11:03;;;;;;;58.47;41.43;;;8.30;99.90;;;;;;5013748;28;20473;-70
2020/12/17 01:13:29;;;;;;;58.50;47.40;;;8.40;99.90;;;;;;5014030;28;20503;-70
2020/12/17 01:15:56;;;;;;;58.50;44.60;;;8.30;99.90;;;;;;5012487;28;20471;-70
2020/12/17 01:18:23;;;;;;;56.30;42.07;;;8.30;99.90;;;;;;5014116;28;20446;-70
2020/12/17 01:20:49;;;;;;;57.07;44.73;;;8.30;99.90;;;;;;5015473;28;20446;-70
2020/12/17 01:23:15;;;;;;;55.17;45.30;;;8.20;99.90;;;;;;5015683;28;20462;-70
2020/12/17 01:25:42;;;;;;;53.10;43.27;;;8.20;99.90;;;;;;5011639;28;20539;-70
2020/12/17 01:28:12;;;;;;;58.57;43.67;;;8.20;99.90;;;;;;5012105;28;20454;-70
2020/12/17 01:30:39;;;;;;;56.63;45.50;;;8.20;99.90;;;;;;5012247;28;20477;-70
2020/12/17 01:33:05;;;;;;;61.30;41.23;;;8.20;99.90;;;;;;5011929;28;20961;-70
2020/12/17 01:35:33;;;;;;;59.47;40.77;;;8.20;99.90;;;;;;5011057;28;21019;-70
2020/12/17 01:38:00;;;;;;;54.10;41.17;;;8.20;99.90;;;;;;5012115;28;20453;-70
2020/12/17 01:40:26;;;;;;;60.63;46.23;;;8.20;99.90;;;;;;5011567;28;20960;-70
2020/12/17 01:42:52;;;;;;;58.60;43.93;;;8.20;99.90;;;;;;5012481;28;20556;-70
2020/12/17 01:45:19;;;;;;;53.10;43.43;;;8.20;99.90;;;;;;5011819;28;20457;-70
2020/12/17 01:47:47;;;;;;;59.37;44.87;;;8.20;99.90;;;;;;5012078;28;20454;-70
2020/12/17 01:50:14;;;;;;;55.23;39.50;;;8.20;99.90;;;;;;5011558;28;20488;-71
2020/12/17 01:52:41;;;;;;;58.83;40.63;;;8.20;99.90;;;;;;5013861;28;20508;-71
2020/12/17 01:55:07;;;;;;;54.23;42.03;;;8.10;99.90;;;;;;5014815;28;20450;-71
2020/12/17 01:57:36;;;;;;;59.97;42.00;;;8.20;99.90;;;;;;5015933;28;20973;-71
2020/12/17 02:00:07;;;;;;;53.73;39.90;;;8.10;99.90;;;;;;5015663;28;20453;-71
2020/12/17 02:02:34;;;;;;;53.73;44.43;;;8.20;99.90;;;;;;5016014;28;20454;-71
2020/12/17 02:05:04;;;;;;;53.10;41.07;;;8.10;99.90;;;;;;5015234;28;20463;-71
2020/12/17 02:07:31;;;;;;;49.27;41.03;;;8.10;99.90;;;;;;5015135;28;20499;-70
2020/12/17 02:09:59;;;;;;;55.70;40.30;;;8.10;99.90;;;;;;5015679;28;20481;-70
2020/12/17 02:12:42;;;;;;;53.67;45.37;;;8.00;99.90;;;;;;5015557;28;20495;-70
2020/12/17 02:15:08;;;;;;;48.70;38.70;;;8.10;99.90;;;;;;5015180;28;20515;-71
2020/12/17 02:17:34;;;;;;;51.63;38.23;;;8.00;99.90;;;;;;5015016;28;20991;-70
2020/12/17 02:20:02;;;;;;;50.77;39.70;;;8.10;99.90;;;;;;5015332;28;20448;-70
2020/12/17 02:22:30;;;;;;;51.60;40.47;;;8.10;99.90;;;;;;5015267;28;20472;-70
2020/12/17 02:24:57;;;;;;;50.40;38.60;;;8.00;99.90;;;;;;5015006;28;20519;-70
2020/12/17 02:27:23;;;;;;;51.00;37.90;;;8.00;99.90;;;;;;5015045;28;20477;-70
2020/12/17 02:29:49;;;;;;;50.30;42.17;;;8.00;99.90;;;;;;5014930;28;20855;-70
2020/12/17 02:32:16;;;;;;;49.13;37.13;;;8.00;99.90;;;;;;5015404;28;20453;-70
2020/12/17 02:34:42;;;;;;;49.90;39.40;;;8.00;99.90;;;;;;5015282;28;20446;-70
2020/12/17 02:37:08;;;;;;;50.40;39.50;;;8.00;99.90;;;;;;5015202;28;20465;-70
2020/12/17 02:39:35;;;;;;;44.27;37.33;;;7.90;99.90;;;;;;5014440;28;20456;-70
2020/12/17 02:42:02;;;;;;;44.93;36.53;;;7.90;99.90;;;;;;5014879;28;20450;-70
2020/12/17 02:44:29;;;;;;;48.07;38.90;;;7.90;99.90;;;;;;5014854;28;20461;-71
2020/12/17 02:46:55;;;;;;;48.13;36.87;;;7.90;99.90;;;;;;5014828;28;20465;-70
2020/12/17 02:49:22;;;;;;;46.70;35.33;;;8.00;99.90;;;;;;5015121;28;20450;-71
2020/12/17 02:51:48;;;;;;;45.40;36.43;;;8.00;99.90;;;;;;5015037;28;20461;-71
2020/12/17 02:54:14;;;;;;;46.07;37.83;;;8.00;99.90;;;;;;5013861;28;20457;-71
2020/12/17 02:56:40;;;;;;;46.20;36.10;;;7.90;99.90;;;;;;5014053;28;20497;-70
2020/12/17 02:59:07;;;;;;;44.17;36.13;;;7.90;99.90;;;;;;5014913;28;20463;-70
2020/12/17 03:01:34;;;;;;;42.90;35.47;;;7.90;99.90;;;;;;5015227;28;20456;-70
2020/12/17 03:04:00;;;;;;;43.80;36.17;;;8.00;99.90;;;;;;5013963;28;20449;-70
2020/12/17 03:06:26;;;;;;;47.23;37.33;;;7.90;99.90;;;;;;5014991;28;20867;-70
2020/12/17 03:08:53;;;;;;;40.17;34.13;;;7.90;99.90;;;;;;5014195;28;20799;-70
2020/12/17 03:11:19;;;;;;;44.63;34.80;;;7.80;99.90;;;;;;5014647;28;20485;-70
2020/12/17 03:13:45;;;;;;;43.93;36.73;;;7.90;99.90;;;;;;5014008;28;20458;-70
2020/12/17 03:16:12;;;;;;;44.80;36.20;;;7.90;99.90;;;;;;5014280;28;20485;-70
2020/12/17 03:18:39;;;;;;;46.20;36.57;;;7.80;99.90;;;;;;5014771;28;20446;-70
2020/12/17 03:21:05;;;;;;;42.30;37.40;;;7.80;99.90;;;;;;5014357;28;20458;-70
2020/12/17 03:23:31;;;;;;;44.60;34.83;;;7.80;99.90;;;;;;5014673;28;20847;-70
2020/12/17 03:25:58;;;;;;;41.90;34.23;;;7.80;99.90;;;;;;5014065;28;20477;-70
2020/12/17 03:28:24;;;;;;;42.10;35.20;;;7.80;99.90;;;;;;5014338;28;20945;-70
2020/12/17 03:30:50;;;;;;;40.37;32.90;;;7.80;99.90;;;;;;5013770;28;20854;-70
2020/12/17 03:33:17;;;;;;;43.33;34.10;;;7.80;99.90;;;;;;5013791;28;20956;-70
2020/12/17 03:35:44;;;;;;;45.63;34.53;;;7.80;99.90;;;;;;4996354;28;20481;-70
2020/12/17 03:38:10;;;;;;;45.03;37.37;;;7.80;99.90;;;;;;5013910;28;20457;-69
2020/12/17 03:40:37;;;;;;;40.80;33.50;;;7.80;99.90;;;;;;5014015;28;20819;-70
2020/12/17 03:43:03;;;;;;;44.43;36.77;;;7.80;99.90;;;;;;5014158;28;20460;-70
2020/12/17 03:45:30;;;;;;;41.53;34.80;;;7.80;99.90;;;;;;5014070;28;20472;-70
2020/12/17 03:47:56;;;;;;;47.23;35.90;;;7.80;99.90;;;;;;5014063;28;20515;-70
2020/12/17 03:50:23;;;;;;;42.50;33.80;;;7.80;99.90;;;;;;5014476;28;20509;-70
2020/12/17 03:52:49;;;;;;;48.33;41.00;;;7.80;99.90;;;;;;5014142;28;20987;-70
2020/12/17 03:55:16;;;;;;;46.27;36.33;;;7.80;99.90;;;;;;5013989;28;20453;-70
2020/12/17 03:57:42;;;;;;;46.90;36.03;;;7.80;99.90;;;;;;5013667;28;20450;-70
2020/12/17 04:00:09;;;;;;;49.73;36.90;;;7.80;99.90;;;;;;5013460;28;20450;-70
2020/12/17 04:02:35;;;;;;;48.33;37.70;;;7.70;99.90;;;;;;5013877;28;20456;-70
2020/12/17 04:05:01;;;;;;;48.67;39.90;;;7.80;99.90;;;;;;5013857;28;20456;-70
2020/12/17 04:07:28;;;;;;;49.37;43.10;;;7.70;99.90;;;;;;5013763;28;21001;-70
2020/12/17 04:09:55;;;;;;;44.50;39.77;;;7.70;99.90;;;;;;5013828;28;20485;-70
2020/12/17 04:12:21;;;;;;;46.53;41.53;;;7.70;99.90;;;;;;5013679;28;20489;-70
2020/12/17 04:14:47;;;;;;;50.67;41.33;;;7.60;99.90;;;;;;5013149;28;20458;-70
2020/12/17 04:17:14;;;;;;;45.00;39.20;;;7.70;99.90;;;;;;5013057;28;20469;-71
2020/12/17 04:19:40;;;;;;;47.37;40.93;;;7.70;99.90;;;;;;5013781;28;20883;-71
2020/12/17 04:22:06;;;;;;;47.07;39.90;;;7.60;99.90;;;;;;5013972;28;20449;-71
2020/12/17 04:24:33;;;;;;;44.37;39.60;;;7.60;99.90;;;;;;5012981;28;20449;-71
2020/12/17 04:27:00;;;;;;;48.60;39.87;;;7.60;99.90;;;;;;5014239;28;20564;-71
2020/12/17 04:29:26;;;;;;;44.83;38.70;;;7.60;99.90;;;;;;5014725;28;20457;-71
2020/12/17 04:31:52;;;;;;;46.80;41.50;;;7.60;99.90;;;;;;5014017;28;20485;-70
2020/12/17 04:34:19;;;;;;;46.37;39.20;;;7.60;99.90;;;;;;5012947;28;20957;-71
2020/12/17 04:36:45;;;;;;;48.57;39.80;;;7.50;99.90;;;;;;5013899;28;20472;-71
2020/12/17 04:39:11;;;;;;;46.70;40.37;;;7.60;99.90;;;;;;5012981;28;20488;-70
2020/12/17 04:41:42;;;;;;;44.87;40.00;;;7.60;99.90;;;;;;4993608;28;20816;-70
2020/12/17 04:44:09;;;;;;;45.90;40.93;;;7.60;99.90;;;;;;5002813;28;20456;-70
2020/12/17 04:46:36;;;;;;;44.20;39.60;;;7.60;99.90;;;;;;5015141;28;20474;-71
2020/12/17 04:49:03;;;;;;;43.50;37.20;;;7.60;99.90;;;;;;5013608;28;20471;-70
2020/12/17 04:51:31;;;;;;;45.30;39.40;;;7.60;99.90;;;;;;5013362;28;20485;-70
2020/12/17 04:54:02;;;;;;;45.40;38.13;;;7.60;99.90;;;;;;5012678;28;20987;-70
2020/12/17 04:56:28;;;;;;;45.87;39.63;;;7.60;99.90;;;;;;5013344;28;20491;-70
2020/12/17 04:58:59;;;;;;;47.17;40.80;;;7.60;99.90;;;;;;5013524;28;20450;-71
2020/12/17 05:01:32;;;;;;;49.77;40.70;;;7.60;99.90;;;;;;5013021;28;20516;-70
2020/12/17 05:03:59;;;;;;;50.60;41.90;;;7.60;99.90;;;;;;5012569;28;20460;-71
2020/12/17 05:06:26;;;;;;;51.03;42.60;;;7.50;99.90;;;;;;5013716;28;20466;-71
2020/12/17 05:08:53;;;;;;;46.70;39.07;;;7.60;99.90;;;;;;5012594;28;20461;-71
2020/12/17 05:11:20;;;;;;;45.80;39.83;;;7.60;99.90;;;;;;5013096;28;21023;-71
2020/12/17 05:13:47;;;;;;;48.30;41.13;;;7.60;99.90;;;;;;5012868;28;20449;-70
2020/12/17 05:16:14;;;;;;;48.77;41.27;;;7.60;99.90;;;;;;5012612;28;20853;-70
2020/12/17 05:18:41;;;;;;;44.10;39.17;;;7.60;99.90;;;;;;5012352;28;20454;-71
2020/12/17 05:21:07;;;;;;;46.40;39.10;;;7.70;99.90;;;;;;5012432;28;20457;-71
2020/12/17 05:23:34;;;;;;;46.47;38.67;;;7.60;99.90;;;;;;5012337;28;20461;-71
2020/12/17 05:26:00;;;;;;;43.60;39.10;;;7.60;99.90;;;;;;5013206;28;20977;-71
2020/12/17 05:28:27;;;;;;;44.90;39.90;;;7.60;99.90;;;;;;5016582;28;20454;-69
2020/12/17 05:30:53;;;;;;;45.83;39.07;;;7.60;99.90;;;;;;5017841;28;20504;-69
2020/12/17 05:33:22;;;;;;;42.17;37.57;;;7.70;99.90;;;;;;5016315;28;20818;-69
2020/12/17 05:35:49;;;;;;;43.83;38.23;;;7.60;99.90;;;;;;5017431;28;20993;-70
2020/12/17 05:38:22;;;;;;;40.97;36.27;;;7.60;99.90;;;;;;5017545;28;20461;-70
2020/12/17 05:40:48;;;;;;;45.53;38.53;;;7.60;99.90;;;;;;5016818;28;20450;-71
2020/12/17 05:43:21;;;;;;;44.10;35.70;;;7.70;99.90;;;;;;5016448;28;20453;-71
2020/12/17 05:45:47;;;;;;;43.03;38.43;;;7.60;99.90;;;;;;5016069;28;20847;-71
2020/12/17 05:48:15;;;;;;;41.40;36.90;;;7.60;99.90;;;;;;5015796;28;20458;-71
2020/12/17 05:50:56;;;;;;;44.10;36.90;;;7.60;99.90;;;;;;5016246;28;20491;-71
2020/12/17 05:53:24;;;;;;;39.87;35.67;;;7.60;99.90;;;;;;5015821;28;20445;-71
2020/12/17 05:56:01;;;;;;;39.67;35.10;;;7.60;99.90;;;;;;5016375;28;21000;-71
2020/12/17 05:58:37;;;;;;;41.43;36.93;;;7.60;99.90;;;;;;5016081;28;20498;-71
2020/12/17 06:01:12;;;;;;;39.70;35.43;;;7.50;99.90;;;;;;5019271;28;21111;-71
2020/12/17 06:03:38;;;;;;;41.77;36.80;;;7.60;99.90;;;;;;5015268;28;20493;-71
2020/12/17 06:06:07;;;;;;;40.60;35.80;;;7.60;99.90;;;;;;5016504;28;20465;-71
2020/12/17 06:08:36;;;;;;;40.30;35.90;;;7.50;99.90;;;;;;5016342;28;20876;-71
2020/12/17 06:11:06;;;;;;;41.40;36.97;;;7.50;99.90;;;;;;5016875;28;20535;-71
2020/12/17 06:13:36;;;;;;;40.03;35.70;;;7.50;99.90;;;;;;5017048;28;20453;-70
2020/12/17 06:16:06;;;;;;;38.77;34.67;;;7.50;99.90;;;;;;5015515;28;20468;-70
2020/12/17 06:18:37;;;;;;;41.30;36.93;;;7.60;99.90;;;;;;5016285;28;20458;-72
2020/12/17 06:21:07;;;;;;;39.10;34.83;;;7.60;99.90;;;;;;5014848;28;20851;-71
2020/12/17 06:23:34;;;;;;;37.93;33.90;;;7.50;99.90;;;;;;5015546;28;20505;-71
2020/12/17 06:26:00;;;;;;;37.27;33.47;;;7.60;99.90;;;;;;5016210;28;20484;-70
2020/12/17 06:28:45;;;;;;;37.20;33.50;;;7.50;99.90;;;;;;5016067;28;20833;-70
2020/12/17 06:31:15;;;;;;;38.30;34.30;;;7.60;99.90;;;;;;5015139;28;20488;-70
2020/12/17 06:33:42;;;;;;;36.40;32.70;;;7.50;99.90;;;;;;5016136;28;20453;-70
2020/12/17 06:36:18;;;;;;;36.80;32.90;;;7.60;99.90;;;;;;5015170;28;20477;-70
2020/12/17 06:38:45;;;;;;;35.57;31.87;;;7.60;99.90;;;;;;5014384;28;20541;-71
2020/12/17 06:41:16;;;;;;;34.03;30.43;;;7.50;99.90;;;;;;5014980;28;20941;-71
2020/12/17 06:43:43;;;;;;;35.97;32.07;;;7.60;99.90;;;;;;5015431;28;20453;-71
2020/12/17 06:46:31;;;;;;;34.73;30.27;;;7.60;99.90;;;;;;5015737;28;20476;-71
2020/12/17 06:48:58;;;;;;;34.83;31.23;;;7.60;99.90;;;;;;5014689;28;20441;-71
2020/12/17 06:51:36;;;;;;;33.97;30.30;;;7.60;99.90;;;;;;5015779;28;20489;-71
2020/12/17 06:54:05;;;;;;;34.27;30.93;;;7.60;99.90;;;;;;5014942;28;20450;-71
2020/12/17 06:56:31;;;;;;;35.60;31.93;;;7.60;99.90;;;;;;5014823;28;21376;-71
2020/12/17 06:59:17;;;;;;;34.60;31.00;;;7.60;99.90;;;;;;5014869;28;20446;-71
2020/12/17 07:01:43;;;;;;;35.20;31.50;;;7.70;99.90;;;;;;5015396;28;20445;-71
2020/12/17 07:04:10;;;;;;;34.87;31.17;;;7.70;99.90;;;;;;5015099;28;20507;-71
2020/12/17 07:06:38;;;;;;;34.77;31.17;;;7.70;99.90;;;;;;5015726;28;21172;-71
2020/12/17 07:09:04;;;;;;;32.10;28.70;;;7.70;99.90;;;;;;5015665;28;20453;-71
2020/12/17 07:11:44;;;;;;;32.60;29.10;;;7.70;99.90;;;;;;5015765;28;20477;-71
2020/12/17 07:14:18;;;;;;;33.13;29.83;;;7.70;99.90;;;;;;5014818;28;20456;-71
2020/12/17 07:16:50;;;;;;;31.27;28.27;;;7.80;99.90;;;;;;5015311;28;20827;-71
2020/12/17 07:19:25;;;;;;;31.50;28.50;;;7.80;99.90;;;;;;5015768;28;21095;-71
2020/12/17 07:21:55;;;;;;;30.33;27.33;;;7.80;99.90;;;;;;5015828;28;20449;-71
2020/12/17 07:24:23;;;;;;;31.00;27.63;;;7.80;99.90;;;;;;5015256;28;20469;-71
2020/12/17 07:26:51;;;;;;;31.30;28.20;;;7.80;99.90;;;;;;5015628;28;20543;-71
2020/12/17 07:29:18;;;;;;;30.60;27.80;;;7.80;99.90;;;;;;5016093;28;20450;-71
2020/12/17 07:31:44;;;;;;;30.17;27.23;;;7.80;99.90;;;;;;5015996;28;21071;-71
2020/12/17 07:34:16;;;;;;;29.27;26.27;;;7.70;99.90;;;;;;5014767;28;20450;-72
2020/12/17 07:36:45;;;;;;;18.83;10.50;;;7.80;99.90;;;;;;5015322;28;20480;-73
2020/12/17 07:39:12;;;;;;;11.13;8.43;;;12.00;99.90;;;;;;5015251;28;20458;-73
2020/12/17 07:41:39;;;;;;;12.90;8.33;;;14.60;99.90;;;;;;5014416;28;20822;-71
2020/12/17 07:44:05;;;;;;;12.00;9.50;;;16.50;99.90;;;;;;5018326;28;20450;-70
2020/12/17 07:46:37;;;;;;;12.93;11.63;;;17.20;99.90;;;;;;5015150;28;20476;-71
2020/12/17 07:49:20;;;;;;;8.10;7.27;;;17.70;99.90;;;;;;5014203;28;20449;-71
2020/12/17 07:51:47;;;;;;;11.60;8.63;;;18.70;99.90;;;;;;5014671;28;20481;-71
2020/12/17 07:54:14;;;;;;;8.83;8.13;;;19.00;99.90;;;;;;5013982;28;20445;-71
2020/12/17 07:56:40;;;;;;;9.43;7.87;;;19.10;99.90;;;;;;5013394;28;20862;-71
2020/12/17 07:59:07;;;;;;;10.20;8.10;;;19.70;99.90;;;;;;5013741;28;20468;-71
2020/12/17 08:01:33;;;;;;;11.50;8.70;;;20.00;99.90;;;;;;5010240;28;20860;-71
2020/12/17 08:04:00;;;;;;;9.13;8.33;;;20.10;99.90;;;;;;5014296;28;20466;-70
2020/12/17 08:06:28;;;;;;;8.43;7.70;;;20.30;99.90;;;;;;5014246;28;20474;-71
2020/12/17 08:08:56;;;;;;;11.20;10.20;;;20.40;99.90;;;;;;5014552;28;20479;-71
2020/12/17 08:11:25;;;;;;;8.23;7.43;;;20.30;99.90;;;;;;5014373;28;20485;-70
2020/12/17 08:13:57;;;;;;;8.23;7.50;;;20.60;99.90;;;;;;5014769;28;20454;-71
2020/12/17 08:16:24;;;;;;;8.37;7.00;;;20.50;99.90;;;;;;5014030;28;20776;-71
2020/12/17 08:18:53;;;;;;;8.20;7.40;;;20.50;99.90;;;;;;5014613;28;20457;-70
2020/12/17 08:21:20;;;;;;;10.47;9.37;;;20.40;99.90;;;;;;5014413;28;20462;-70
2020/12/17 08:23:47;;;;;;;7.50;6.80;;;20.00;99.90;;;;;;5013897;28;21018;-70
2020/12/17 08:26:18;;;;;;;24.23;22.13;;;20.30;99.90;;;;;;5014262;28;20515;-71
2020/12/17 08:28:45;;;;;;;26.60;24.00;;;10.30;99.90;;;;;;5021673;28;20461;-71
2020/12/17 08:31:13;;;;;;;25.53;23.27;;;8.80;99.90;;;;;;5031176;28;20486;-70
2020/12/17 08:33:44;;;;;;;27.83;25.10;;;8.40;99.90;;;;;;5033590;28;20446;-72
2020/12/17 08:36:15;;;;;;;28.63;25.83;;;8.30;99.90;;;;;;5033066;28;20472;-72
2020/12/17 08:38:41;;;;;;;26.90;24.30;;;8.20;99.90;;;;;;5030350;28;20918;-72
2020/12/17 08:41:09;;;;;;;30.33;27.20;;;8.20;99.90;;;;;;5032773;28;20460;-71
2020/12/17 08:43:43;;;;;;;29.67;26.87;;;8.20;99.90;;;;;;5019975;28;20465;-71
2020/12/17 08:46:15;;;;;;;25.07;21.70;;;8.10;99.90;;;;;;5018341;28;20536;-72
2020/12/17 08:48:43;;;;;;;24.90;22.30;;;8.50;99.90;;;;;;5017285;28;20861;-71
2020/12/17 08:51:11;;;;;;;28.67;25.97;;;8.40;99.90;;;;;;5023915;28;20473;-70
2020/12/17 08:53:41;;;;;;;28.43;25.73;;;8.20;99.90;;;;;;5019118;28;20466;-70
2020/12/17 08:56:15;;;;;;;26.77;23.87;;;8.20;99.90;;;;;;5032450;28;20473;-70
2020/12/17 08:58:53;;;;;;;27.90;25.17;;;8.30;99.90;;;;;;5030499;28;20514;-70
2020/12/17 09:01:26;;;;;;;28.60;25.90;;;8.30;99.90;;;;;;5032867;28;20493;-70
2020/12/17 09:03:54;;;;;;;27.07;24.40;;;8.30;99.90;;;;;;5030992;28;20504;-71
2020/12/17 09:06:28;;;;;;;27.53;24.93;;;8.40;99.90;;;;;;5032847;28;20466;-70
2020/12/17 09:09:09;;;;;;;27.70;25.00;;;8.50;99.90;;;;;;5031296;28;20456;-70
2020/12/17 09:11:37;;;;;;;28.77;25.40;;;8.40;99.90;;;;;;5029999;28;21101;-70
2020/12/17 09:14:06;;;;;;;26.63;24.07;;;8.50;99.90;;;;;;5030510;28;20464;-70
2020/12/17 09:16:36;;;;;;;25.60;23.30;;;8.60;99.90;;;;;;5030219;28;20468;-71
2020/12/17 09:19:07;;;;;;;24.93;22.53;;;8.60;99.90;;;;;;5030874;28;20448;-70
2020/12/17 09:21:34;;;;;;;25.77;23.37;;;8.70;99.90;;;;;;5017697;28;20536;-70
2020/12/17 09:24:01;;;;;;;24.97;22.60;;;8.70;99.90;;;;;;5029751;28;20437;-69
2020/12/17 09:26:28;;;;;;;23.47;21.37;;;8.70;99.90;;;;;;5027020;28;20496;-69
2020/12/17 09:28:57;;;;;;;25.57;23.10;;;8.70;99.90;;;;;;5024487;28;20461;-70
2020/12/17 09:31:25;;;;;;;25.70;23.07;;;8.70;99.90;;;;;;5021740;28;20576;-70
2020/12/17 09:34:03;;;;;;;25.13;22.63;;;8.80;99.90;;;;;;5014169;28;20449;-70
2020/12/17 09:36:29;;;;;;;29.03;26.30;;;8.80;99.90;;;;;;5013315;28;20474;-70
2020/12/17 09:38:59;;;;;;;26.27;23.77;;;8.80;99.90;;;;;;5014009;28;20442;-70
2020/12/17 09:41:26;;;;;;;27.27;24.67;;;8.80;99.90;;;;;;5009478;28;20450;-69
2020/12/17 09:43:54;;;;;;;28.20;25.20;;;8.80;99.90;;;;;;5006525;28;21048;-65
2020/12/17 09:46:20;;;;;;;29.23;26.10;;;8.80;99.90;;;;;;5012379;28;20474;-67
2020/12/17 09:48:46;;;;;;;27.80;25.10;;;8.90;99.90;;;;;;5012564;28;20838;-67
2020/12/17 09:51:13;;;;;;;27.57;24.63;;;9.00;99.90;;;;;;5012504;28;20481;-67
2020/12/17 09:53:42;;;;;;;30.57;27.47;;;9.00;99.90;;;;;;5012477;28;20449;-67
2020/12/17 09:56:09;;;;;;;30.00;26.97;;;9.10;99.90;;;;;;5012019;28;20497;-72
2020/12/17 09:58:36;;;;;;;28.97;26.07;;;9.10;99.90;;;;;;5010453;28;20461;-72
2020/12/17 10:01:04;;;;;;;28.43;25.50;;;9.20;99.90;;;;;;5010431;28;20453;-72
2020/12/17 10:03:30;;;;;;;30.73;27.63;;;9.10;99.90;;;;;;5011440;28;20505;-72
2020/12/17 10:05:56;;;;;;;35.07;28.97;;;9.20;99.90;;;;;;5020006;28;20461;-72
2020/12/17 10:08:23;;;;;;;30.27;27.37;;;9.20;99.90;;;;;;5019751;28;20450;-71
2020/12/17 10:10:50;;;;;;;30.10;27.10;;;9.30;99.90;;;;;;5016499;28;20486;-72
2020/12/17 10:13:16;;;;;;;31.43;28.33;;;9.40;99.90;;;;;;5013334;28;20506;-72
2020/12/17 10:15:42;;;;;;;31.60;28.40;;;9.50;99.90;;;;;;5016365;28;20465;-72
2020/12/17 10:18:09;;;;;;;31.10;28.30;;;9.50;99.90;;;;;;5017819;28;20457;-72
2020/12/17 10:20:35;;;;;;;32.53;27.87;;;9.60;99.90;;;;;;5015750;28;20485;-73
2020/12/17 10:23:02;;;;;;;30.53;27.67;;;9.60;99.90;;;;;;5013824;28;20442;-72
2020/12/17 10:25:29;;;;;;;30.13;27.40;;;9.70;99.90;;;;;;5014615;28;20477;-72
2020/12/17 10:27:58;;;;;;;32.43;29.37;;;9.80;99.90;;;;;;5015556;28;20949;-67
2020/12/17 10:30:24;;;;;;;31.70;28.53;;;9.80;99.90;;;;;;5016110;28;20449;-70
2020/12/17 10:32:51;;;;;;;33.50;30.03;;;9.80;99.90;;;;;;5017382;28;20945;-70
2020/12/17 10:35:17;;;;;;;33.30;29.90;;;9.80;99.90;;;;;;5016629;28;20457;-70
2020/12/17 10:37:43;;;;;;;32.50;29.40;;;9.90;99.90;;;;;;5017292;28;20449;-70
2020/12/17 10:40:11;;;;;;;31.87;28.60;;;9.90;99.90;;;;;;5017014;28;20801;-70
2020/12/17 10:42:38;;;;;;;32.47;29.10;;;10.00;99.90;;;;;;5017242;28;20515;-70
2020/12/17 10:45:05;;;;;;;32.40;29.17;;;10.10;99.90;;;;;;5016443;28;20452;-70
2020/12/17 10:47:32;;;;;;;32.97;29.93;;;10.10;99.90;;;;;;5017529;28;20465;-70
2020/12/17 10:49:58;;;;;;;33.57;29.90;;;10.20;99.90;;;;;;5016523;28;20466;-70
2020/12/17 10:52:25;;;;;;;33.70;30.43;;;10.20;99.90;;;;;;5014841;28;20492;-70
2020/12/17 10:54:51;;;;;;;31.90;28.80;;;10.30;99.90;;;;;;5015524;28;20468;-70
2020/12/17 10:57:21;;;;;;;34.60;31.30;;;10.30;99.90;;;;;;5016541;28;20892;-69
2020/12/17 10:59:48;;;;;;;33.90;30.80;;;10.20;99.90;;;;;;5016033;28;20496;-70
2020/12/17 11:02:14;;;;;;;35.10;31.70;;;10.30;99.90;;;;;;5015741;28;20454;-70
2020/12/17 11:04:41;;;;;;;34.43;30.80;;;10.30;99.90;;;;;;5014870;28;20484;-70
2020/12/17 11:07:07;;;;;;;33.20;30.00;;;10.40;99.90;;;;;;5015330;28;20556;-70
2020/12/17 11:09:33;;;;;;;32.60;29.40;;;10.40;99.90;;;;;;5015771;28;20493;-70
2020/12/17 11:12:00;;;;;;;32.53;29.43;;;10.60;99.90;;;;;;5015388;28;20564;-70
2020/12/17 11:14:26;;;;;;;33.10;29.70;;;10.60;99.90;;;;;;5015485;28;20457;-70
2020/12/17 11:16:53;;;;;;;35.67;32.03;;;10.60;99.90;;;;;;5015222;28;20568;-70
2020/12/17 11:19:20;;;;;;;31.00;28.20;;;10.60;99.90;;;;;;5015089;28;20449;-70
2020/12/17 11:21:46;;;;;;;33.67;30.60;;;10.60;99.90;;;;;;5016254;28;20450;-70
2020/12/17 11:24:13;;;;;;;31.10;27.90;;;10.60;99.90;;;;;;5014009;28;20465;-70
2020/12/17 11:26:43;;;;;;;30.00;27.10;;;10.70;99.90;;;;;;5006105;28;20543;-70
2020/12/17 11:29:10;;;;;;;29.30;26.67;;;10.70;99.90;;;;;;4999681;28;20450;-71
2020/12/17 11:31:37;;;;;;;28.13;25.50;;;10.70;99.90;;;;;;5017991;28;20496;-71
2020/12/17 11:34:04;;;;;;;27.17;24.57;;;10.70;99.90;;;;;;5018390;28;20461;-70
2020/12/17 11:36:31;;;;;;;27.97;25.43;;;10.70;99.90;;;;;;5004088;28;20474;-71
2020/12/17 11:38:57;;;;;;;29.03;26.43;;;10.70;99.90;;;;;;5016031;28;20832;-70
2020/12/17 11:41:24;;;;;;;26.57;24.17;;;10.70;99.90;;;;;;5013864;28;20466;-70
2020/12/17 11:43:50;;;;;;;26.30;24.10;;;10.70;99.90;;;;;;5015911;28;20450;-72
2020/12/17 11:46:18;;;;;;;25.23;23.03;;;10.70;99.90;;;;;;5011898;28;20516;-71
2020/12/17 11:48:45;;;;;;;26.53;24.33;;;10.60;99.90;;;;;;5015699;28;20471;-71
2020/12/17 11:51:14;;;;;;;25.00;22.80;;;10.50;99.90;;;;;;5015815;28;20503;-71
2020/12/17 11:53:40;;;;;;;24.97;22.87;;;10.50;99.90;;;;;;5012802;28;20461;-70
2020/12/17 11:56:06;;;;;;;26.80;24.47;;;10.50;99.90;;;;;;5015285;28;20493;-70
2020/12/17 11:58:33;;;;;;;27.53;25.23;;;10.50;99.90;;;;;;4997076;28;20439;-70
2020/12/17 12:00:59;;;;;;;27.73;25.33;;;10.40;99.90;;;;;;5040338;22;20522;-71
2020/12/17 12:03:25;;;;;;;25.60;23.43;;;10.60;99.90;;;;;;5033625;28;20479;-73
2020/12/17 12:05:52;;;;;;;27.67;25.40;;;10.50;99.90;;;;;;5028097;28;20462;-72
2020/12/17 12:08:19;;;;;;;26.57;24.17;;;10.50;99.90;;;;;;5014966;28;20460;-67
2020/12/17 12:10:45;;;;;;;25.93;23.63;;;10.60;99.90;;;;;;5019362;28;20580;-71
2020/12/17 12:13:11;;;;;;;24.07;22.17;;;10.60;99.90;;;;;;5025714;28;20452;-71
2020/12/17 12:15:38;;;;;;;24.03;21.93;;;10.60;99.90;;;;;;5031357;28;20465;-76
2020/12/17 12:18:04;;;;;;;23.93;21.93;;;10.60;99.90;;;;;;5032788;28;20459;-73
2020/12/17 12:20:30;;;;;;;24.50;22.30;;;10.50;99.90;;;;;;5032109;28;20522;-76
2020/12/17 12:22:58;;;;;;;24.97;22.80;;;10.50;99.90;;;;;;5031294;28;20489;-74
2020/12/17 12:25:25;;;;;;;26.00;23.80;;;10.50;99.90;;;;;;5029831;28;20465;-68
2020/12/17 12:27:52;;;;;;;26.03;23.93;;;10.50;99.90;;;;;;5031670;28;20475;-71
2020/12/17 12:30:18;;;;;;;26.30;23.97;;;10.50;99.90;;;;;;5031206;28;20955;-74
2020/12/17 12:32:44;;;;;;;25.63;23.33;;;10.50;99.90;;;;;;5032443;28;20515;-72
2020/12/17 12:35:11;;;;;;;26.90;24.50;;;10.60;99.90;;;;;;5027079;28;20464;-74
2020/12/17 12:37:37;;;;;;;25.73;23.53;;;10.50;99.90;;;;;;5031601;28;20452;-69